This is the latest recevied weather packets stored in our database for station/object KB4KY. If no packets are shown the sender has not sent any weather packets the latest 10 day(s).
| Time | Temp. | Humidity | Pressure | Rain* | Wind** | Luminosity | Snow |
|---|---|---|---|---|---|---|---|
| 1777941990 | 22.22° C | 53% | 1005.4 hPa | 0 mm | - | - | - |
| 1777941693 | 22.22° C | 53% | 1005.5 hPa | 0 mm | - | - | - |
| 1777941391 | 22.22° C | 52% | 1005.7 hPa | 0 mm | - | - | - |
| 1777941092 | 22.78° C | 51% | 1005.8 hPa | 0 mm | - | - | - |
| 1777940791 | 22.78° C | 51% | 1005.8 hPa | 0 mm | - | - | - |
| 1777940493 | 22.78° C | 51% | 1005.7 hPa | 0 mm | - | - | - |
| 1777940189 | 22.78° C | 50% | 1005.8 hPa | 0 mm | - | - | - |
| 1777939890 | 23.33° C | 50% | 1005.8 hPa | 0 mm | - | - | - |
| 1777939588 | 23.33° C | 49% | 1005.9 hPa | 0 mm | - | - | - |
| 1777939289 | 23.33° C | 49% | 1005.9 hPa | 0 mm | - | - | - |
| 1777938988 | 23.33° C | 49% | 1006 hPa | 0 mm | - | - | - |
| 1777938687 | 23.89° C | 48% | 1006.1 hPa | 0 mm | - | - | - |
| 1777938387 | 23.89° C | 48% | 1006.3 hPa | 0 mm | - | - | - |
| 1777938087 | 23.89° C | 47% | 1006.4 hPa | 0 mm | - | - | - |
| 1777937785 | 23.89° C | 46% | 1006.5 hPa | 0 mm | - | - | - |
| 1777937487 | 23.89° C | 47% | 1006.5 hPa | 0 mm | - | - | - |
| 1777937255 | 25° C | 48% | 1006.9 hPa | 0 mm | - | - | - |
| 1777937184 | 24.44° C | 48% | 1006.6 hPa | 0 mm | - | - | - |
| 1777936886 | 24.44° C | 47% | 1006.8 hPa | 0 mm | - | - | - |
| 1777936586 | 25° C | 48% | 1006.9 hPa | 0 mm | - | - | - |
| 1777936285 | 25° C | 47% | 1006.9 hPa | 0 mm | - | - | - |
| 1777936181 | 26.11° C | 43% | 1007.5 hPa | 0 mm | - | - | - |
| 1777935985 | 25.56° C | 46% | 1007 hPa | 0 mm | - | - | - |
| 1777935686 | 25.56° C | 47% | 1007 hPa | 0 mm | - | - | - |
| 1777935387 | 25.56° C | 45% | 1007.1 hPa | 0 mm | - | - | - |
* Rain latest hour (hover to see other rain measurements)
** Current wind speed in m/s (hover to see current wind gust speed)